sensor_id;sensor_type;location;lat;lon;timestamp;P1;durP1;ratioP1;P2;durP2;ratioP2
32108;SDS011;18624;50.042;8.436;2022-11-15T00:00:57;12.40;;;10.20;;
32108;SDS011;18624;50.042;8.436;2022-11-15T00:03:42;12.68;;;10.38;;
32108;SDS011;18624;50.042;8.436;2022-11-15T00:06:27;13.45;;;10.07;;
32108;SDS011;18624;50.042;8.436;2022-11-15T00:09:12;14.25;;;10.38;;
32108;SDS011;18624;50.042;8.436;2022-11-15T00:11:57;14.57;;;11.18;;
32108;SDS011;18624;50.042;8.436;2022-11-15T00:14:42;14.88;;;11.05;;
32108;SDS011;18624;50.042;8.436;2022-11-15T00:17:27;11.23;;;9.90;;
32108;SDS011;18624;50.042;8.436;2022-11-15T00:20:12;13.10;;;10.23;;
32108;SDS011;18624;50.042;8.436;2022-11-15T00:22:57;11.10;;;9.07;;
32108;SDS011;18624;50.042;8.436;2022-11-15T00:25:42;11.07;;;9.60;;
32108;SDS011;18624;50.042;8.436;2022-11-15T00:28:27;9.40;;;8.43;;
32108;SDS011;18624;50.042;8.436;2022-11-15T00:31:13;9.13;;;8.07;;
32108;SDS011;18624;50.042;8.436;2022-11-15T00:33:58;10.43;;;9.13;;
32108;SDS011;18624;50.042;8.436;2022-11-15T00:36:44;9.57;;;8.55;;
32108;SDS011;18624;50.042;8.436;2022-11-15T00:39:28;9.43;;;8.30;;
32108;SDS011;18624;50.042;8.436;2022-11-15T00:42:13;9.68;;;8.50;;
32108;SDS011;18624;50.042;8.436;2022-11-15T00:44:58;15.27;;;10.35;;
32108;SDS011;18624;50.042;8.436;2022-11-15T00:47:44;10.85;;;9.75;;
32108;SDS011;18624;50.042;8.436;2022-11-15T00:50:30;13.70;;;10.60;;
32108;SDS011;18624;50.042;8.436;2022-11-15T00:53:15;11.88;;;9.70;;
32108;SDS011;18624;50.042;8.436;2022-11-15T00:56:01;10.07;;;8.93;;
32108;SDS011;18624;50.042;8.436;2022-11-15T00:58:46;10.60;;;8.35;;
32108;SDS011;18624;50.042;8.436;2022-11-15T01:01:31;10.02;;;8.80;;
32108;SDS011;18624;50.042;8.436;2022-11-15T01:04:16;10.48;;;8.25;;
32108;SDS011;18624;50.042;8.436;2022-11-15T01:07:00;9.07;;;8.18;;
32108;SDS011;18624;50.042;8.436;2022-11-15T01:09:46;9.18;;;7.97;;
32108;SDS011;18624;50.042;8.436;2022-11-15T01:12:31;12.20;;;9.50;;
32108;SDS011;18624;50.042;8.436;2022-11-15T01:15:16;9.90;;;8.20;;
32108;SDS011;18624;50.042;8.436;2022-11-15T01:18:01;10.10;;;7.72;;
32108;SDS011;18624;50.042;8.436;2022-11-15T01:20:46;11.13;;;8.60;;
32108;SDS011;18624;50.042;8.436;2022-11-15T01:23:31;9.23;;;7.80;;
32108;SDS011;18624;50.042;8.436;2022-11-15T01:26:16;9.43;;;8.07;;
32108;SDS011;18624;50.042;8.436;2022-11-15T01:29:02;9.15;;;7.80;;
32108;SDS011;18624;50.042;8.436;2022-11-15T01:31:47;10.15;;;8.50;;
32108;SDS011;18624;50.042;8.436;2022-11-15T01:34:32;11.43;;;9.10;;
32108;SDS011;18624;50.042;8.436;2022-11-15T01:37:17;10.15;;;8.82;;
32108;SDS011;18624;50.042;8.436;2022-11-15T01:40:02;8.98;;;8.07;;
32108;SDS011;18624;50.042;8.436;2022-11-15T01:42:48;12.07;;;8.95;;
32108;SDS011;18624;50.042;8.436;2022-11-15T01:45:33;9.48;;;7.90;;
32108;SDS011;18624;50.042;8.436;2022-11-15T01:48:18;11.20;;;8.85;;
32108;SDS011;18624;50.042;8.436;2022-11-15T01:51:05;9.38;;;8.15;;
32108;SDS011;18624;50.042;8.436;2022-11-15T01:53:54;12.90;;;9.15;;
32108;SDS011;18624;50.042;8.436;2022-11-15T01:56:47;9.30;;;8.30;;
32108;SDS011;18624;50.042;8.436;2022-11-15T01:59:38;8.75;;;7.50;;
32108;SDS011;18624;50.042;8.436;2022-11-15T02:02:27;9.48;;;7.82;;
32108;SDS011;18624;50.042;8.436;2022-11-15T02:05:12;12.98;;;9.02;;
32108;SDS011;18624;50.042;8.436;2022-11-15T02:07:57;11.18;;;8.20;;
32108;SDS011;18624;50.042;8.436;2022-11-15T02:10:44;10.85;;;9.25;;
32108;SDS011;18624;50.042;8.436;2022-11-15T02:13:29;10.50;;;9.38;;
32108;SDS011;18624;50.042;8.436;2022-11-15T02:16:27;10.90;;;8.27;;
32108;SDS011;18624;50.042;8.436;2022-11-15T02:32:06;9.43;;;7.35;;
32108;SDS011;18624;50.042;8.436;2022-11-15T02:35:15;8.63;;;7.43;;
32108;SDS011;18624;50.042;8.436;2022-11-15T02:38:17;8.80;;;7.82;;
32108;SDS011;18624;50.042;8.436;2022-11-15T02:41:30;8.48;;;7.28;;
32108;SDS011;18624;50.042;8.436;2022-11-15T02:44:43;8.10;;;6.75;;
32108;SDS011;18624;50.042;8.436;2022-11-15T02:47:31;9.32;;;8.07;;
32108;SDS011;18624;50.042;8.436;2022-11-15T02:50:25;8.75;;;7.88;;
32108;SDS011;18624;50.042;8.436;2022-11-15T02:53:13;9.32;;;8.35;;
32108;SDS011;18624;50.042;8.436;2022-11-15T02:55:59;8.90;;;7.40;;
32108;SDS011;18624;50.042;8.436;2022-11-15T03:07:50;9.73;;;8.57;;
32108;SDS011;18624;50.042;8.436;2022-11-15T03:13:54;9.77;;;8.77;;
32108;SDS011;18624;50.042;8.436;2022-11-15T03:20:11;8.85;;;7.82;;
32108;SDS011;18624;50.042;8.436;2022-11-15T03:23:02;8.55;;;7.53;;
32108;SDS011;18624;50.042;8.436;2022-11-15T03:25:50;8.82;;;7.15;;
32108;SDS011;18624;50.042;8.436;2022-11-15T03:28:38;8.80;;;7.40;;
32108;SDS011;18624;50.042;8.436;2022-11-15T03:31:28;9.10;;;7.70;;
32108;SDS011;18624;50.042;8.436;2022-11-15T03:34:37;8.77;;;7.88;;
32108;SDS011;18624;50.042;8.436;2022-11-15T03:41:00;9.15;;;7.35;;
32108;SDS011;18624;50.042;8.436;2022-11-15T03:43:53;10.13;;;7.13;;
32108;SDS011;18624;50.042;8.436;2022-11-15T03:46:52;9.75;;;7.38;;
32108;SDS011;18624;50.042;8.436;2022-11-15T03:49:49;9.50;;;7.85;;
32108;SDS011;18624;50.042;8.436;2022-11-15T03:52:37;8.50;;;7.55;;
32108;SDS011;18624;50.042;8.436;2022-11-15T03:55:25;10.48;;;7.63;;
32108;SDS011;18624;50.042;8.436;2022-11-15T03:58:10;9.25;;;7.85;;
32108;SDS011;18624;50.042;8.436;2022-11-15T04:00:55;8.35;;;7.30;;
32108;SDS011;18624;50.042;8.436;2022-11-15T04:03:40;8.43;;;6.93;;
32108;SDS011;18624;50.042;8.436;2022-11-15T04:06:25;10.77;;;7.35;;
32108;SDS011;18624;50.042;8.436;2022-11-15T04:09:10;9.85;;;7.72;;
32108;SDS011;18624;50.042;8.436;2022-11-15T04:11:54;8.00;;;7.20;;
32108;SDS011;18624;50.042;8.436;2022-11-15T04:14:39;8.45;;;7.50;;
32108;SDS011;18624;50.042;8.436;2022-11-15T04:17:47;9.13;;;6.40;;
32108;SDS011;18624;50.042;8.436;2022-11-15T04:20:33;8.85;;;7.32;;
32108;SDS011;18624;50.042;8.436;2022-11-15T04:26:51;7.38;;;6.53;;
32108;SDS011;18624;50.042;8.436;2022-11-15T04:29:36;8.43;;;6.65;;
32108;SDS011;18624;50.042;8.436;2022-11-15T04:32:21;9.73;;;6.75;;
32108;SDS011;18624;50.042;8.436;2022-11-15T04:35:06;10.18;;;6.93;;
32108;SDS011;18624;50.042;8.436;2022-11-15T04:37:51;9.23;;;7.55;;
32108;SDS011;18624;50.042;8.436;2022-11-15T04:40:37;8.82;;;6.78;;
32108;SDS011;18624;50.042;8.436;2022-11-15T04:43:22;10.48;;;7.93;;
32108;SDS011;18624;50.042;8.436;2022-11-15T04:46:07;8.40;;;6.63;;
32108;SDS011;18624;50.042;8.436;2022-11-15T04:48:52;10.90;;;8.35;;
32108;SDS011;18624;50.042;8.436;2022-11-15T04:51:43;8.02;;;7.18;;
32108;SDS011;18624;50.042;8.436;2022-11-15T04:54:29;7.43;;;6.53;;
32108;SDS011;18624;50.042;8.436;2022-11-15T04:57:14;10.35;;;7.22;;
32108;SDS011;18624;50.042;8.436;2022-11-15T05:00:00;8.55;;;7.65;;
32108;SDS011;18624;50.042;8.436;2022-11-15T05:02:45;8.82;;;7.22;;
32108;SDS011;18624;50.042;8.436;2022-11-15T05:08:33;7.35;;;6.53;;
32108;SDS011;18624;50.042;8.436;2022-11-15T05:11:18;8.40;;;7.07;;
32108;SDS011;18624;50.042;8.436;2022-11-15T05:14:03;7.63;;;6.93;;
32108;SDS011;18624;50.042;8.436;2022-11-15T05:16:48;7.55;;;6.80;;
32108;SDS011;18624;50.042;8.436;2022-11-15T05:19:33;8.52;;;7.07;;
32108;SDS011;18624;50.042;8.436;2022-11-15T05:22:18;7.97;;;6.90;;
32108;SDS011;18624;50.042;8.436;2022-11-15T05:25:04;7.75;;;6.20;;
32108;SDS011;18624;50.042;8.436;2022-11-15T05:27:50;9.02;;;7.68;;
32108;SDS011;18624;50.042;8.436;2022-11-15T05:30:35;7.75;;;6.88;;
32108;SDS011;18624;50.042;8.436;2022-11-15T05:33:20;9.00;;;7.57;;
32108;SDS011;18624;50.042;8.436;2022-11-15T05:39:09;7.53;;;6.68;;
32108;SDS011;18624;50.042;8.436;2022-11-15T05:41:55;14.43;;;8.25;;
32108;SDS011;18624;50.042;8.436;2022-11-15T05:44:46;7.97;;;6.85;;
32108;SDS011;18624;50.042;8.436;2022-11-15T05:47:33;9.23;;;7.03;;
32108;SDS011;18624;50.042;8.436;2022-11-15T05:50:20;8.35;;;7.43;;
32108;SDS011;18624;50.042;8.436;2022-11-15T05:53:06;9.35;;;7.68;;
32108;SDS011;18624;50.042;8.436;2022-11-15T05:55:51;7.50;;;6.70;;
32108;SDS011;18624;50.042;8.436;2022-11-15T05:58:36;7.63;;;6.60;;
32108;SDS011;18624;50.042;8.436;2022-11-15T06:01:22;7.78;;;7.00;;
32108;SDS011;18624;50.042;8.436;2022-11-15T06:04:09;8.35;;;7.15;;
32108;SDS011;18624;50.042;8.436;2022-11-15T06:06:54;9.15;;;7.97;;
32108;SDS011;18624;50.042;8.436;2022-11-15T06:09:39;8.63;;;7.30;;
32108;SDS011;18624;50.042;8.436;2022-11-15T06:12:24;8.25;;;7.40;;
32108;SDS011;18624;50.042;8.436;2022-11-15T06:15:09;8.07;;;6.72;;
32108;SDS011;18624;50.042;8.436;2022-11-15T06:17:57;8.00;;;6.85;;
32108;SDS011;18624;50.042;8.436;2022-11-15T06:20:43;9.05;;;6.50;;
32108;SDS011;18624;50.042;8.436;2022-11-15T06:23:28;13.48;;;8.90;;
32108;SDS011;18624;50.042;8.436;2022-11-15T06:26:17;7.65;;;6.68;;
32108;SDS011;18624;50.042;8.436;2022-11-15T06:29:03;10.80;;;8.07;;
32108;SDS011;18624;50.042;8.436;2022-11-15T06:31:49;8.00;;;7.13;;
32108;SDS011;18624;50.042;8.436;2022-11-15T06:34:34;7.43;;;6.70;;
32108;SDS011;18624;50.042;8.436;2022-11-15T06:37:20;8.55;;;7.40;;
32108;SDS011;18624;50.042;8.436;2022-11-15T06:40:05;8.05;;;7.10;;
32108;SDS011;18624;50.042;8.436;2022-11-15T06:42:56;9.73;;;6.43;;
32108;SDS011;18624;50.042;8.436;2022-11-15T06:45:42;8.48;;;6.30;;
32108;SDS011;18624;50.042;8.436;2022-11-15T06:48:27;7.70;;;5.90;;
32108;SDS011;18624;50.042;8.436;2022-11-15T06:51:13;8.38;;;6.72;;
32108;SDS011;18624;50.042;8.436;2022-11-15T06:53:58;6.88;;;6.10;;
32108;SDS011;18624;50.042;8.436;2022-11-15T06:56:43;7.55;;;6.85;;
32108;SDS011;18624;50.042;8.436;2022-11-15T06:59:27;7.13;;;6.30;;
32108;SDS011;18624;50.042;8.436;2022-11-15T07:02:12;7.70;;;6.53;;
32108;SDS011;18624;50.042;8.436;2022-11-15T07:04:58;8.35;;;6.95;;
32108;SDS011;18624;50.042;8.436;2022-11-15T07:07:43;7.85;;;6.32;;
32108;SDS011;18624;50.042;8.436;2022-11-15T07:10:35;11.07;;;7.15;;
32108;SDS011;18624;50.042;8.436;2022-11-15T07:13:23;7.82;;;6.95;;
32108;SDS011;18624;50.042;8.436;2022-11-15T07:16:09;9.48;;;7.68;;
32108;SDS011;18624;50.042;8.436;2022-11-15T07:18:55;10.07;;;7.07;;
32108;SDS011;18624;50.042;8.436;2022-11-15T07:21:40;11.38;;;9.05;;
32108;SDS011;18624;50.042;8.436;2022-11-15T07:24:25;7.93;;;7.05;;
32108;SDS011;18624;50.042;8.436;2022-11-15T07:27:10;8.75;;;7.85;;
32108;SDS011;18624;50.042;8.436;2022-11-15T07:29:55;10.30;;;8.25;;
32108;SDS011;18624;50.042;8.436;2022-11-15T07:32:40;8.07;;;7.28;;
32108;SDS011;18624;50.042;8.436;2022-11-15T07:35:25;8.98;;;7.63;;
32108;SDS011;18624;50.042;8.436;2022-11-15T07:38:11;8.45;;;7.65;;
32108;SDS011;18624;50.042;8.436;2022-11-15T07:40:57;7.85;;;7.03;;
32108;SDS011;18624;50.042;8.436;2022-11-15T07:43:46;11.80;;;9.30;;
32108;SDS011;18624;50.042;8.436;2022-11-15T07:46:31;11.32;;;10.10;;
32108;SDS011;18624;50.042;8.436;2022-11-15T07:49:16;12.60;;;11.35;;
32108;SDS011;18624;50.042;8.436;2022-11-15T07:52:01;15.75;;;10.73;;
32108;SDS011;18624;50.042;8.436;2022-11-15T07:54:46;11.25;;;9.65;;
32108;SDS011;18624;50.042;8.436;2022-11-15T07:57:31;14.63;;;9.82;;
32108;SDS011;18624;50.042;8.436;2022-11-15T08:00:16;9.98;;;7.40;;
32108;SDS011;18624;50.042;8.436;2022-11-15T08:03:03;7.55;;;6.68;;
32108;SDS011;18624;50.042;8.436;2022-11-15T08:05:50;7.28;;;6.32;;
32108;SDS011;18624;50.042;8.436;2022-11-15T08:08:36;6.90;;;5.95;;
32108;SDS011;18624;50.042;8.436;2022-11-15T08:11:20;7.18;;;6.45;;
32108;SDS011;18624;50.042;8.436;2022-11-15T08:14:05;8.82;;;6.43;;
32108;SDS011;18624;50.042;8.436;2022-11-15T08:16:50;8.70;;;6.43;;
32108;SDS011;18624;50.042;8.436;2022-11-15T08:19:35;8.77;;;6.60;;
32108;SDS011;18624;50.042;8.436;2022-11-15T08:22:20;8.07;;;6.45;;
32108;SDS011;18624;50.042;8.436;2022-11-15T08:25:05;9.45;;;6.55;;
32108;SDS011;18624;50.042;8.436;2022-11-15T08:27:51;10.20;;;6.80;;
32108;SDS011;18624;50.042;8.436;2022-11-15T08:30:43;8.25;;;6.43;;
32108;SDS011;18624;50.042;8.436;2022-11-15T08:33:30;9.43;;;7.35;;
32108;SDS011;18624;50.042;8.436;2022-11-15T08:36:17;8.05;;;6.22;;
32108;SDS011;18624;50.042;8.436;2022-11-15T08:39:02;7.47;;;6.18;;
32108;SDS011;18624;50.042;8.436;2022-11-15T08:41:47;7.10;;;6.32;;
32108;SDS011;18624;50.042;8.436;2022-11-15T08:44:32;7.18;;;5.85;;
32108;SDS011;18624;50.042;8.436;2022-11-15T08:47:17;7.53;;;6.30;;
32108;SDS011;18624;50.042;8.436;2022-11-15T08:50:02;8.15;;;6.50;;
32108;SDS011;18624;50.042;8.436;2022-11-15T08:52:47;8.25;;;6.72;;
32108;SDS011;18624;50.042;8.436;2022-11-15T08:55:35;8.70;;;7.20;;
32108;SDS011;18624;50.042;8.436;2022-11-15T08:58:21;8.82;;;7.88;;
32108;SDS011;18624;50.042;8.436;2022-11-15T09:01:06;8.00;;;6.82;;
32108;SDS011;18624;50.042;8.436;2022-11-15T09:03:51;7.93;;;7.13;;
32108;SDS011;18624;50.042;8.436;2022-11-15T09:06:36;8.60;;;7.15;;
32108;SDS011;18624;50.042;8.436;2022-11-15T09:09:27;8.70;;;7.80;;
32108;SDS011;18624;50.042;8.436;2022-11-15T09:12:11;9.50;;;7.05;;
32108;SDS011;18624;50.042;8.436;2022-11-15T09:14:56;12.07;;;7.40;;
32108;SDS011;18624;50.042;8.436;2022-11-15T09:17:41;9.82;;;8.00;;
32108;SDS011;18624;50.042;8.436;2022-11-15T09:20:26;8.80;;;7.93;;
32108;SDS011;18624;50.042;8.436;2022-11-15T09:23:11;8.68;;;7.78;;
32108;SDS011;18624;50.042;8.436;2022-11-15T09:26:00;7.43;;;6.72;;
32108;SDS011;18624;50.042;8.436;2022-11-15T09:28:46;7.55;;;6.50;;
32108;SDS011;18624;50.042;8.436;2022-11-15T09:31:31;7.85;;;6.55;;
32108;SDS011;18624;50.042;8.436;2022-11-15T09:34:17;8.70;;;7.50;;
32108;SDS011;18624;50.042;8.436;2022-11-15T09:37:02;9.43;;;7.68;;
32108;SDS011;18624;50.042;8.436;2022-11-15T09:39:46;8.77;;;7.22;;
32108;SDS011;18624;50.042;8.436;2022-11-15T09:49:13;8.52;;;6.82;;
32108;SDS011;18624;50.042;8.436;2022-11-15T09:51:59;7.88;;;7.03;;
32108;SDS011;18624;50.042;8.436;2022-11-15T09:54:28;7.82;;;7.07;;
32108;SDS011;18624;50.042;8.436;2022-11-15T09:57:32;9.35;;;8.15;;
32108;SDS011;18624;50.042;8.436;2022-11-15T10:00:21;9.15;;;7.53;;
32108;SDS011;18624;50.042;8.436;2022-11-15T10:03:17;10.13;;;7.22;;
32108;SDS011;18624;50.042;8.436;2022-11-15T10:05:50;7.97;;;7.07;;
32108;SDS011;18624;50.042;8.436;2022-11-15T10:08:25;9.45;;;8.10;;
32108;SDS011;18624;50.042;8.436;2022-11-15T10:11:00;7.95;;;6.95;;
32108;SDS011;18624;50.042;8.436;2022-11-15T10:13:50;12.68;;;7.97;;
32108;SDS011;18624;50.042;8.436;2022-11-15T10:16:26;11.38;;;7.53;;
32108;SDS011;18624;50.042;8.436;2022-11-15T10:22:05;10.32;;;8.05;;
32108;SDS011;18624;50.042;8.436;2022-11-15T10:24:39;7.30;;;6.60;;
32108;SDS011;18624;50.042;8.436;2022-11-15T10:27:13;9.50;;;7.38;;
32108;SDS011;18624;50.042;8.436;2022-11-15T10:29:44;8.43;;;7.53;;
32108;SDS011;18624;50.042;8.436;2022-11-15T10:32:12;8.40;;;6.90;;
32108;SDS011;18624;50.042;8.436;2022-11-15T10:34:40;7.35;;;6.18;;
32108;SDS011;18624;50.042;8.436;2022-11-15T10:37:06;12.57;;;8.38;;
32108;SDS011;18624;50.042;8.436;2022-11-15T10:39:33;8.95;;;6.80;;
32108;SDS011;18624;50.042;8.436;2022-11-15T10:42:16;8.98;;;7.93;;
32108;SDS011;18624;50.042;8.436;2022-11-15T10:44:44;8.63;;;7.47;;
32108;SDS011;18624;50.042;8.436;2022-11-15T10:47:22;8.65;;;7.75;;
32108;SDS011;18624;50.042;8.436;2022-11-15T10:49:59;11.13;;;8.25;;
32108;SDS011;18624;50.042;8.436;2022-11-15T10:52:52;10.82;;;8.93;;
32108;SDS011;18624;50.042;8.436;2022-11-15T10:55:26;10.77;;;8.80;;
32108;SDS011;18624;50.042;8.436;2022-11-15T10:57:59;11.02;;;8.43;;
32108;SDS011;18624;50.042;8.436;2022-11-15T11:00:35;9.95;;;7.97;;
32108;SDS011;18624;50.042;8.436;2022-11-15T11:03:06;8.57;;;7.68;;
32108;SDS011;18624;50.042;8.436;2022-11-15T11:08:56;9.68;;;8.27;;
32108;SDS011;18624;50.042;8.436;2022-11-15T11:11:24;9.35;;;7.45;;
32108;SDS011;18624;50.042;8.436;2022-11-15T11:13:51;8.88;;;7.82;;
32108;SDS011;18624;50.042;8.436;2022-11-15T11:16:39;10.52;;;9.27;;
32108;SDS011;18624;50.042;8.436;2022-11-15T11:19:52;11.45;;;8.60;;
32108;SDS011;18624;50.042;8.436;2022-11-15T11:25:40;10.20;;;9.23;;
32108;SDS011;18624;50.042;8.436;2022-11-15T11:31:07;9.20;;;7.80;;
32108;SDS011;18624;50.042;8.436;2022-11-15T11:36:19;12.73;;;8.68;;
32108;SDS011;18624;50.042;8.436;2022-11-15T11:39:02;10.32;;;7.75;;
32108;SDS011;18624;50.042;8.436;2022-11-15T11:41:49;9.65;;;8.60;;
32108;SDS011;18624;50.042;8.436;2022-11-15T11:47:28;9.18;;;7.75;;
32108;SDS011;18624;50.042;8.436;2022-11-15T11:50:00;8.85;;;7.90;;
32108;SDS011;18624;50.042;8.436;2022-11-15T11:52:53;9.02;;;7.63;;
32108;SDS011;18624;50.042;8.436;2022-11-15T11:55:42;8.43;;;7.00;;
32108;SDS011;18624;50.042;8.436;2022-11-15T11:58:24;11.43;;;8.18;;
32108;SDS011;18624;50.042;8.436;2022-11-15T12:01:17;11.85;;;7.45;;
32108;SDS011;18624;50.042;8.436;2022-11-15T12:03:58;8.70;;;7.72;;
32108;SDS011;18624;50.042;8.436;2022-11-15T12:06:32;8.35;;;7.15;;
32108;SDS011;18624;50.042;8.436;2022-11-15T12:09:06;9.52;;;7.45;;
32108;SDS011;18624;50.042;8.436;2022-11-15T12:17:29;8.85;;;7.10;;
32108;SDS011;18624;50.042;8.436;2022-11-15T12:19:58;8.23;;;6.53;;
32108;SDS011;18624;50.042;8.436;2022-11-15T12:22:49;8.55;;;6.50;;
32108;SDS011;18624;50.042;8.436;2022-11-15T12:25:49;11.15;;;7.07;;
32108;SDS011;18624;50.042;8.436;2022-11-15T12:28:22;7.25;;;6.55;;
32108;SDS011;18624;50.042;8.436;2022-11-15T12:34:01;10.30;;;7.03;;
32108;SDS011;18624;50.042;8.436;2022-11-15T12:36:37;7.07;;;6.38;;
32108;SDS011;18624;50.042;8.436;2022-11-15T12:39:08;8.07;;;7.25;;
32108;SDS011;18624;50.042;8.436;2022-11-15T12:41:40;7.55;;;6.20;;
32108;SDS011;18624;50.042;8.436;2022-11-15T12:44:12;8.85;;;6.63;;
32108;SDS011;18624;50.042;8.436;2022-11-15T13:02:33;7.93;;;5.78;;
32108;SDS011;18624;50.042;8.436;2022-11-15T13:17:39;7.85;;;6.15;;
32108;SDS011;18624;50.042;8.436;2022-11-15T13:27:53;7.10;;;6.10;;
32108;SDS011;18624;50.042;8.436;2022-11-15T13:30:30;8.30;;;5.82;;
32108;SDS011;18624;50.042;8.436;2022-11-15T13:33:05;7.70;;;6.20;;
32108;SDS011;18624;50.042;8.436;2022-11-15T13:35:36;8.80;;;6.10;;
32108;SDS011;18624;50.042;8.436;2022-11-15T13:38:06;8.85;;;5.47;;
32108;SDS011;18624;50.042;8.436;2022-11-15T13:40:36;8.50;;;7.05;;
32108;SDS011;18624;50.042;8.436;2022-11-15T13:43:17;8.40;;;6.63;;
32108;SDS011;18624;50.042;8.436;2022-11-15T13:46:07;6.88;;;6.25;;
32108;SDS011;18624;50.042;8.436;2022-11-15T13:48:38;8.50;;;6.35;;
32108;SDS011;18624;50.042;8.436;2022-11-15T13:51:08;7.70;;;6.57;;
32108;SDS011;18624;50.042;8.436;2022-11-15T13:53:55;6.47;;;5.60;;
32108;SDS011;18624;50.042;8.436;2022-11-15T13:56:27;7.80;;;6.40;;
32108;SDS011;18624;50.042;8.436;2022-11-15T13:58:57;8.77;;;6.90;;
32108;SDS011;18624;50.042;8.436;2022-11-15T14:01:24;7.07;;;6.38;;
32108;SDS011;18624;50.042;8.436;2022-11-15T14:03:57;8.07;;;5.78;;
32108;SDS011;18624;50.042;8.436;2022-11-15T14:06:25;10.73;;;7.80;;
32108;SDS011;18624;50.042;8.436;2022-11-15T14:08:59;8.20;;;6.55;;
32108;SDS011;18624;50.042;8.436;2022-11-15T14:11:29;8.13;;;5.82;;
32108;SDS011;18624;50.042;8.436;2022-11-15T14:16:36;6.55;;;5.00;;
32108;SDS011;18624;50.042;8.436;2022-11-15T14:19:05;6.65;;;5.45;;
32108;SDS011;18624;50.042;8.436;2022-11-15T14:21:32;5.90;;;4.90;;
32108;SDS011;18624;50.042;8.436;2022-11-15T14:24:14;6.30;;;5.53;;
32108;SDS011;18624;50.042;8.436;2022-11-15T14:26:52;7.20;;;5.63;;
32108;SDS011;18624;50.042;8.436;2022-11-15T14:29:41;5.95;;;4.97;;
32108;SDS011;18624;50.042;8.436;2022-11-15T14:32:18;6.03;;;5.28;;
32108;SDS011;18624;50.042;8.436;2022-11-15T14:34:53;4.97;;;4.50;;
32108;SDS011;18624;50.042;8.436;2022-11-15T14:37:25;5.63;;;4.78;;
32108;SDS011;18624;50.042;8.436;2022-11-15T14:39:53;5.82;;;4.40;;
32108;SDS011;18624;50.042;8.436;2022-11-15T14:42:21;10.02;;;5.40;;
32108;SDS011;18624;50.042;8.436;2022-11-15T14:44:49;9.32;;;6.68;;
32108;SDS011;18624;50.042;8.436;2022-11-15T14:47:16;9.32;;;6.22;;
32108;SDS011;18624;50.042;8.436;2022-11-15T14:49:43;10.52;;;7.60;;
32108;SDS011;18624;50.042;8.436;2022-11-15T14:52:23;7.57;;;6.35;;
32108;SDS011;18624;50.042;8.436;2022-11-15T14:54:58;8.32;;;6.10;;
32108;SDS011;18624;50.042;8.436;2022-11-15T14:57:25;7.15;;;5.05;;
32108;SDS011;18624;50.042;8.436;2022-11-15T14:59:51;5.78;;;5.18;;
32108;SDS011;18624;50.042;8.436;2022-11-15T15:02:21;4.60;;;3.97;;
32108;SDS011;18624;50.042;8.436;2022-11-15T15:04:51;5.22;;;3.80;;
32108;SDS011;18624;50.042;8.436;2022-11-15T15:07:17;4.95;;;4.45;;
32108;SDS011;18624;50.042;8.436;2022-11-15T15:09:46;7.65;;;4.80;;
32108;SDS011;18624;50.042;8.436;2022-11-15T15:12:16;4.97;;;3.85;;
32108;SDS011;18624;50.042;8.436;2022-11-15T15:14:44;3.63;;;3.30;;
32108;SDS011;18624;50.042;8.436;2022-11-15T15:17:11;5.30;;;4.35;;
32108;SDS011;18624;50.042;8.436;2022-11-15T15:19:38;5.07;;;3.65;;
32108;SDS011;18624;50.042;8.436;2022-11-15T15:22:11;3.65;;;2.72;;
32108;SDS011;18624;50.042;8.436;2022-11-15T15:24:40;3.95;;;2.65;;
32108;SDS011;18624;50.042;8.436;2022-11-15T15:27:07;4.68;;;3.13;;
32108;SDS011;18624;50.042;8.436;2022-11-15T15:29:34;9.13;;;3.72;;
32108;SDS011;18624;50.042;8.436;2022-11-15T15:32:00;4.57;;;3.00;;
32108;SDS011;18624;50.042;8.436;2022-11-15T15:34:27;6.53;;;2.88;;
32108;SDS011;18624;50.042;8.436;2022-11-15T15:39:53;4.45;;;2.63;;
32108;SDS011;18624;50.042;8.436;2022-11-15T15:42:21;3.63;;;2.33;;
32108;SDS011;18624;50.042;8.436;2022-11-15T15:44:48;3.05;;;2.40;;
32108;SDS011;18624;50.042;8.436;2022-11-15T15:47:22;2.40;;;1.95;;
32108;SDS011;18624;50.042;8.436;2022-11-15T15:49:50;3.08;;;2.35;;
32108;SDS011;18624;50.042;8.436;2022-11-15T15:52:16;4.40;;;2.80;;
32108;SDS011;18624;50.042;8.436;2022-11-15T15:54:43;2.80;;;2.58;;
32108;SDS011;18624;50.042;8.436;2022-11-15T15:57:11;3.13;;;2.13;;
32108;SDS011;18624;50.042;8.436;2022-11-15T15:59:41;3.72;;;2.35;;
32108;SDS011;18624;50.042;8.436;2022-11-15T16:02:14;4.22;;;3.13;;
32108;SDS011;18624;50.042;8.436;2022-11-15T16:04:40;4.95;;;3.60;;
32108;SDS011;18624;50.042;8.436;2022-11-15T16:07:12;6.30;;;4.50;;
32108;SDS011;18624;50.042;8.436;2022-11-15T16:09:46;7.05;;;5.28;;
32108;SDS011;18624;50.042;8.436;2022-11-15T16:12:28;5.57;;;4.00;;
32108;SDS011;18624;50.042;8.436;2022-11-15T16:14:56;4.93;;;3.00;;
32108;SDS011;18624;50.042;8.436;2022-11-15T16:17:24;5.03;;;2.70;;
32108;SDS011;18624;50.042;8.436;2022-11-15T16:19:59;2.88;;;2.60;;
32108;SDS011;18624;50.042;8.436;2022-11-15T16:22:26;2.72;;;2.53;;
32108;SDS011;18624;50.042;8.436;2022-11-15T16:24:52;4.03;;;3.22;;
32108;SDS011;18624;50.042;8.436;2022-11-15T16:27:21;4.78;;;3.65;;
32108;SDS011;18624;50.042;8.436;2022-11-15T16:29:51;4.55;;;4.05;;
32108;SDS011;18624;50.042;8.436;2022-11-15T16:32:17;5.78;;;3.72;;
32108;SDS011;18624;50.042;8.436;2022-11-15T16:34:43;8.55;;;4.70;;
32108;SDS011;18624;50.042;8.436;2022-11-15T16:37:23;6.40;;;4.38;;
32108;SDS011;18624;50.042;8.436;2022-11-15T16:39:50;6.55;;;4.95;;
32108;SDS011;18624;50.042;8.436;2022-11-15T16:42:16;6.30;;;4.63;;
32108;SDS011;18624;50.042;8.436;2022-11-15T16:44:42;6.25;;;4.53;;
32108;SDS011;18624;50.042;8.436;2022-11-15T16:47:16;5.88;;;4.60;;
32108;SDS011;18624;50.042;8.436;2022-11-15T16:49:45;6.50;;;4.25;;
32108;SDS011;18624;50.042;8.436;2022-11-15T16:52:11;4.88;;;4.28;;
32108;SDS011;18624;50.042;8.436;2022-11-15T16:54:43;8.97;;;4.97;;
32108;SDS011;18624;50.042;8.436;2022-11-15T16:57:10;8.55;;;5.95;;
32108;SDS011;18624;50.042;8.436;2022-11-15T16:59:36;8.15;;;5.20;;
32108;SDS011;18624;50.042;8.436;2022-11-15T17:02:04;6.70;;;5.30;;
32108;SDS011;18624;50.042;8.436;2022-11-15T17:07:03;7.25;;;4.93;;
32108;SDS011;18624;50.042;8.436;2022-11-15T17:09:29;6.63;;;4.85;;
32108;SDS011;18624;50.042;8.436;2022-11-15T17:11:56;7.70;;;5.32;;
32108;SDS011;18624;50.042;8.436;2022-11-15T17:14:23;5.38;;;4.57;;
32108;SDS011;18624;50.042;8.436;2022-11-15T17:16:49;5.85;;;4.68;;
32108;SDS011;18624;50.042;8.436;2022-11-15T17:19:19;5.75;;;4.15;;
32108;SDS011;18624;50.042;8.436;2022-11-15T17:21:46;8.52;;;5.32;;
32108;SDS011;18624;50.042;8.436;2022-11-15T17:24:16;5.78;;;4.20;;
32108;SDS011;18624;50.042;8.436;2022-11-15T17:26:43;5.75;;;4.35;;
32108;SDS011;18624;50.042;8.436;2022-11-15T17:29:09;5.03;;;4.40;;
32108;SDS011;18624;50.042;8.436;2022-11-15T17:31:36;11.18;;;7.05;;
32108;SDS011;18624;50.042;8.436;2022-11-15T17:34:04;6.40;;;4.15;;
32108;SDS011;18624;50.042;8.436;2022-11-15T17:36:31;5.97;;;4.55;;
32108;SDS011;18624;50.042;8.436;2022-11-15T17:38:58;6.43;;;4.28;;
32108;SDS011;18624;50.042;8.436;2022-11-15T17:41:25;5.75;;;4.95;;
32108;SDS011;18624;50.042;8.436;2022-11-15T17:43:54;6.95;;;4.63;;
32108;SDS011;18624;50.042;8.436;2022-11-15T17:46:25;10.18;;;4.55;;
32108;SDS011;18624;50.042;8.436;2022-11-15T17:48:53;4.72;;;3.58;;
32108;SDS011;18624;50.042;8.436;2022-11-15T17:51:20;8.10;;;4.35;;
32108;SDS011;18624;50.042;8.436;2022-11-15T17:53:48;7.55;;;5.65;;
32108;SDS011;18624;50.042;8.436;2022-11-15T17:56:16;5.03;;;4.32;;
32108;SDS011;18624;50.042;8.436;2022-11-15T17:58:49;6.57;;;4.45;;
32108;SDS011;18624;50.042;8.436;2022-11-15T18:01:17;6.35;;;4.72;;
32108;SDS011;18624;50.042;8.436;2022-11-15T18:03:48;6.40;;;4.43;;